createdAt,value
2018-09-29T00:01:24.470Z,15.00
2018-09-29T00:03:52.235Z,14.76
2018-09-29T00:06:20.031Z,14.87
2018-09-29T00:08:47.795Z,14.79
2018-09-29T00:11:15.576Z,14.92
2018-09-29T00:13:43.306Z,14.71
2018-09-29T00:16:11.102Z,14.75
2018-09-29T00:18:38.827Z,14.80
2018-09-29T00:21:06.566Z,14.52
2018-09-29T00:23:34.298Z,14.66
2018-09-29T00:26:02.063Z,14.66
2018-09-29T00:28:29.871Z,14.65
2018-09-29T00:30:57.655Z,14.62
2018-09-29T00:33:25.466Z,14.62
2018-09-29T00:35:53.243Z,14.56
2018-09-29T00:38:21.014Z,14.51
2018-09-29T00:40:48.678Z,14.45
2018-09-29T00:43:16.458Z,14.42
2018-09-29T00:45:44.226Z,14.33
2018-09-29T00:48:12.179Z,14.35
2018-09-29T00:50:39.922Z,14.33
2018-09-29T00:53:07.799Z,14.26
2018-09-29T00:55:35.511Z,14.00
2018-09-29T00:58:03.219Z,13.81
2018-09-29T01:00:30.930Z,13.94
2018-09-29T01:02:58.754Z,13.90
2018-09-29T01:05:26.566Z,13.85
2018-09-29T01:07:54.407Z,13.60
2018-09-29T01:10:22.164Z,13.43
2018-09-29T01:12:49.951Z,13.54
2018-09-29T01:15:17.702Z,13.54
2018-09-29T01:17:45.381Z,13.76
2018-09-29T01:20:13.099Z,13.93
2018-09-29T01:22:40.951Z,13.97
2018-09-29T01:25:08.822Z,14.04
2018-09-29T01:27:36.580Z,14.20
2018-09-29T01:30:04.390Z,14.38
2018-09-29T01:32:32.219Z,14.41
2018-09-29T01:35:00.056Z,14.41
2018-09-29T01:37:27.788Z,14.47
2018-09-29T01:39:55.583Z,14.48
2018-09-29T01:42:23.366Z,14.42
2018-09-29T01:44:51.147Z,14.22
2018-09-29T01:47:18.862Z,13.77
2018-09-29T01:49:46.605Z,13.81
2018-09-29T01:52:14.370Z,13.81
2018-09-29T01:54:42.138Z,13.72
2018-09-29T01:57:09.922Z,13.96
2018-09-29T01:59:37.733Z,13.92
2018-09-29T02:02:05.500Z,13.93
2018-09-29T02:04:33.854Z,13.81
2018-09-29T02:07:01.636Z,13.70
2018-09-29T02:09:29.352Z,13.74
2018-09-29T02:11:57.122Z,13.78
2018-09-29T02:14:24.909Z,13.70
2018-09-29T02:16:52.631Z,13.57
2018-09-29T02:19:20.414Z,13.53
2018-09-29T02:21:48.178Z,13.59
2018-09-29T02:24:15.896Z,13.51
2018-09-29T02:26:43.642Z,13.58
2018-09-29T02:29:11.486Z,13.45
2018-09-29T02:31:39.179Z,13.69
2018-09-29T02:34:06.977Z,13.66
2018-09-29T02:36:34.800Z,13.53
2018-09-29T02:39:02.648Z,13.47
2018-09-29T02:41:30.400Z,13.37
2018-09-29T02:43:58.162Z,13.34
2018-09-29T02:46:25.940Z,13.35
2018-09-29T02:48:53.720Z,13.30
2018-09-29T02:51:22.613Z,13.33
2018-09-29T02:53:50.309Z,13.38
2018-09-29T02:56:18.082Z,13.42
2018-09-29T02:58:45.931Z,13.32
2018-09-29T03:01:13.711Z,13.16
2018-09-29T03:03:41.483Z,13.26
2018-09-29T03:06:09.406Z,13.25
2018-09-29T03:08:37.200Z,13.23
2018-09-29T03:11:04.962Z,13.25
2018-09-29T03:13:32.761Z,13.07
2018-09-29T03:16:00.509Z,13.00
2018-09-29T03:18:28.294Z,12.86
2018-09-29T03:20:56.134Z,12.79
2018-09-29T03:23:23.863Z,12.67
2018-09-29T03:25:51.574Z,12.53
2018-09-29T03:28:19.335Z,12.56
2018-09-29T03:30:47.095Z,12.49
2018-09-29T03:33:14.803Z,12.56
2018-09-29T03:35:42.634Z,12.58
2018-09-29T03:38:10.431Z,12.51
2018-09-29T03:40:38.262Z,12.54
2018-09-29T03:43:06.130Z,12.47
2018-09-29T03:45:33.841Z,12.53
2018-09-29T03:48:01.591Z,12.42
2018-09-29T03:50:29.407Z,12.51
2018-09-29T03:52:57.101Z,12.43
2018-09-29T03:55:24.843Z,12.46
2018-09-29T03:57:52.622Z,12.62
2018-09-29T04:00:20.463Z,12.59
2018-09-29T04:02:48.238Z,12.72
2018-09-29T04:05:16.016Z,12.73
2018-09-29T04:07:43.927Z,12.64
2018-09-29T04:10:11.818Z,12.67
2018-09-29T04:12:39.651Z,12.65
2018-09-29T04:15:07.840Z,12.62
2018-09-29T04:17:35.645Z,12.67
2018-09-29T04:20:03.564Z,12.74
2018-09-29T04:22:31.326Z,12.79
2018-09-29T04:24:59.124Z,12.82
2018-09-29T04:27:26.931Z,12.91
2018-09-29T04:29:54.879Z,12.91
2018-09-29T04:32:22.623Z,13.06
2018-09-29T04:34:50.429Z,13.17
2018-09-29T04:37:18.207Z,13.24
2018-09-29T04:39:45.950Z,13.41
2018-09-29T04:42:13.731Z,13.39
2018-09-29T04:44:41.486Z,13.37
2018-09-29T04:47:09.246Z,13.32
2018-09-29T04:49:37.090Z,13.09
2018-09-29T04:52:04.862Z,13.17
2018-09-29T04:54:32.534Z,13.18
2018-09-29T04:57:00.299Z,13.07
2018-09-29T04:59:28.043Z,13.24
2018-09-29T05:01:55.776Z,13.32
2018-09-29T05:04:23.619Z,13.57
2018-09-29T05:06:51.383Z,13.31
2018-09-29T05:09:19.159Z,13.18
2018-09-29T05:11:46.978Z,13.38
2018-09-29T05:14:14.719Z,13.60
2018-09-29T05:16:42.507Z,13.86
2018-09-29T05:19:10.391Z,14.06
2018-09-29T05:21:38.146Z,14.07
2018-09-29T05:24:06.010Z,14.11
2018-09-29T05:26:33.778Z,14.33
2018-09-29T05:29:01.511Z,14.96
2018-09-29T05:31:29.329Z,15.67
2018-09-29T05:33:57.142Z,16.13
2018-09-29T05:36:24.975Z,16.72
2018-09-29T05:38:52.747Z,17.49
2018-09-29T05:41:20.495Z,17.64
2018-09-29T05:43:48.235Z,17.65
2018-09-29T05:46:15.967Z,17.45
2018-09-29T05:48:43.709Z,17.84
2018-09-29T05:51:17.036Z,18.14
2018-09-29T05:53:44.884Z,18.05
2018-09-29T05:56:12.672Z,17.89
2018-09-29T05:58:40.467Z,17.92
2018-09-29T06:01:08.267Z,17.66
2018-09-29T06:03:36.104Z,17.48
2018-09-29T06:06:03.943Z,17.52
2018-09-29T06:08:31.702Z,17.83
2018-09-29T06:10:59.596Z,17.80
2018-09-29T06:13:27.311Z,18.15
2018-09-29T06:15:55.132Z,18.16
2018-09-29T06:18:22.915Z,17.86
2018-09-29T06:20:50.709Z,17.81
2018-09-29T06:23:18.479Z,18.05
2018-09-29T06:25:46.223Z,18.00
2018-09-29T06:28:13.986Z,17.79
2018-09-29T06:30:41.831Z,17.26
2018-09-29T06:33:09.843Z,17.02
2018-09-29T06:35:37.694Z,16.96
2018-09-29T06:38:05.531Z,17.59
2018-09-29T06:40:33.237Z,17.63
2018-09-29T06:43:01.028Z,18.24
2018-09-29T06:45:28.840Z,18.96
2018-09-29T06:47:56.615Z,19.14
2018-09-29T06:50:24.439Z,19.31
2018-09-29T06:52:52.209Z,19.44
2018-09-29T06:55:19.906Z,19.69
2018-09-29T06:57:47.620Z,20.03
2018-09-29T07:00:15.383Z,20.08
2018-09-29T07:02:43.115Z,20.68
2018-09-29T07:05:10.931Z,20.55
2018-09-29T07:07:38.761Z,20.55
2018-09-29T07:10:06.598Z,20.82
2018-09-29T07:12:34.526Z,21.00
2018-09-29T07:15:02.422Z,20.64
2018-09-29T07:17:30.211Z,21.08
2018-09-29T07:19:58.010Z,21.46
2018-09-29T07:22:26.673Z,20.70
2018-09-29T07:24:54.664Z,20.98
2018-09-29T07:27:22.460Z,21.95
2018-09-29T07:29:50.279Z,22.37
2018-09-29T07:32:18.074Z,22.76
2018-09-29T07:34:45.856Z,22.94
2018-09-29T07:37:13.715Z,23.52
2018-09-29T07:39:41.495Z,24.22
2018-09-29T07:42:09.293Z,24.60
2018-09-29T07:44:37.152Z,25.26
2018-09-29T07:47:05.267Z,25.58
2018-09-29T07:49:33.072Z,26.02
2018-09-29T07:52:00.919Z,25.74
2018-09-29T07:54:28.716Z,26.11
2018-09-29T07:56:56.559Z,26.49
2018-09-29T07:59:24.740Z,26.11
2018-09-29T08:01:52.547Z,24.98
2018-09-29T08:04:20.351Z,24.57
2018-09-29T08:06:48.177Z,24.78
2018-09-29T08:09:16.052Z,24.65
2018-09-29T08:11:43.850Z,23.37
2018-09-29T08:14:11.814Z,23.07
2018-09-29T08:16:39.602Z,22.86
2018-09-29T08:19:07.391Z,22.55
2018-09-29T08:21:35.248Z,22.39
2018-09-29T08:24:02.998Z,21.74
2018-09-29T08:26:30.747Z,22.62
2018-09-29T08:28:58.570Z,23.13
2018-09-29T08:31:26.383Z,22.65
2018-09-29T08:33:54.164Z,22.35
2018-09-29T08:36:21.998Z,23.58
2018-09-29T08:38:49.786Z,23.95
2018-09-29T08:41:17.519Z,22.60
2018-09-29T08:43:45.345Z,23.65
2018-09-29T08:46:13.184Z,22.35
2018-09-29T08:48:40.991Z,22.88
2018-09-29T08:51:08.912Z,22.09
2018-09-29T08:53:36.692Z,22.31
2018-09-29T08:56:04.469Z,23.14
2018-09-29T08:58:32.307Z,22.33
2018-09-29T09:01:00.125Z,22.49
2018-09-29T09:03:27.899Z,22.46
2018-09-29T09:05:55.683Z,22.79
2018-09-29T09:08:23.400Z,23.12
2018-09-29T09:10:51.171Z,22.96
2018-09-29T09:13:18.939Z,22.86
2018-09-29T09:15:46.827Z,23.61
2018-09-29T09:18:14.553Z,24.36
2018-09-29T09:20:42.371Z,24.40
2018-09-29T09:23:10.101Z,24.27
2018-09-29T09:25:37.899Z,23.20
2018-09-29T09:28:05.895Z,23.94
2018-09-29T09:30:33.688Z,24.20
2018-09-29T09:33:01.442Z,24.37
2018-09-29T09:35:29.263Z,23.95
2018-09-29T09:37:57.063Z,24.42
2018-09-29T09:40:24.849Z,25.23
2018-09-29T09:42:52.632Z,26.25
2018-09-29T09:45:20.524Z,25.50
2018-09-29T09:47:48.282Z,25.00
2018-09-29T09:50:16.103Z,24.68
2018-09-29T09:52:43.849Z,23.57
2018-09-29T09:55:11.630Z,22.94
2018-09-29T09:57:39.482Z,23.30
2018-09-29T10:00:07.374Z,23.28
2018-09-29T10:02:40.668Z,23.37
2018-09-29T10:05:08.456Z,23.86
2018-09-29T10:07:36.212Z,24.63
2018-09-29T10:10:04.220Z,25.16
2018-09-29T10:12:32.099Z,26.33
2018-09-29T10:14:59.863Z,25.48
2018-09-29T10:17:27.928Z,25.21
2018-09-29T10:19:55.704Z,26.44
2018-09-29T10:22:23.468Z,26.89
2018-09-29T10:24:51.336Z,26.11
2018-09-29T10:27:19.057Z,25.98
2018-09-29T10:29:46.828Z,26.67
2018-09-29T10:32:14.620Z,26.50
2018-09-29T10:34:42.351Z,25.88
2018-09-29T10:37:10.179Z,25.36
2018-09-29T10:39:38.019Z,25.03
2018-09-29T10:42:05.807Z,24.84
2018-09-29T10:44:33.605Z,24.52
2018-09-29T10:47:01.383Z,25.12
2018-09-29T10:49:29.119Z,25.82
2018-09-29T10:51:56.846Z,25.43
2018-09-29T10:54:24.694Z,24.94
2018-09-29T10:56:52.419Z,25.89
2018-09-29T10:59:20.220Z,26.06
2018-09-29T11:01:48.187Z,25.91
2018-09-29T11:04:15.962Z,26.07
2018-09-29T11:06:43.782Z,26.17
2018-09-29T11:09:11.952Z,25.39
2018-09-29T11:11:39.870Z,25.61
2018-09-29T11:14:07.860Z,26.39
2018-09-29T11:16:35.672Z,27.10
2018-09-29T11:19:03.636Z,27.30
2018-09-29T11:21:31.524Z,27.26
2018-09-29T11:23:59.387Z,27.73
2018-09-29T11:26:27.107Z,28.30
2018-09-29T11:28:54.887Z,28.40
2018-09-29T11:31:22.702Z,28.46
2018-09-29T11:33:50.464Z,27.40
2018-09-29T11:36:18.270Z,27.18
2018-09-29T11:38:46.039Z,27.69
2018-09-29T11:41:13.739Z,28.75
2018-09-29T11:43:41.604Z,28.44
2018-09-29T11:46:09.496Z,28.20
2018-09-29T11:48:37.279Z,28.84
2018-09-29T11:51:05.291Z,30.10
2018-09-29T11:53:33.071Z,30.32
2018-09-29T11:56:00.933Z,29.27
2018-09-29T11:58:28.703Z,29.55
2018-09-29T12:00:56.492Z,30.53
2018-09-29T12:03:24.256Z,30.88
2018-09-29T12:05:52.021Z,30.72
2018-09-29T12:08:19.803Z,31.32
2018-09-29T12:10:47.489Z,30.73
2018-09-29T12:13:15.267Z,30.95
2018-09-29T12:15:43.078Z,29.91
2018-09-29T12:18:10.894Z,29.65
2018-09-29T12:20:38.824Z,30.07
2018-09-29T12:23:06.641Z,30.09
2018-09-29T12:25:34.393Z,29.75
2018-09-29T12:28:02.198Z,29.63
2018-09-29T12:30:29.947Z,29.20
2018-09-29T12:32:57.740Z,29.49
2018-09-29T12:35:25.499Z,29.36
2018-09-29T12:37:53.445Z,28.75
2018-09-29T12:40:21.111Z,27.95
2018-09-29T12:42:48.883Z,28.10
2018-09-29T12:45:16.747Z,28.51
2018-09-29T12:47:44.532Z,28.27
2018-09-29T12:50:12.365Z,27.58
2018-09-29T12:52:40.091Z,27.81
2018-09-29T12:55:07.920Z,28.08
2018-09-29T12:57:35.679Z,28.29
2018-09-29T13:00:03.668Z,28.06
2018-09-29T13:02:31.522Z,28.87
2018-09-29T13:04:59.352Z,29.09
2018-09-29T13:07:27.199Z,29.12
2018-09-29T13:09:55.005Z,28.38
2018-09-29T13:12:22.829Z,28.43
2018-09-29T13:14:50.612Z,28.95
2018-09-29T13:17:18.395Z,27.88
2018-09-29T13:19:46.140Z,27.31
2018-09-29T13:22:14.106Z,26.66
2018-09-29T13:24:41.956Z,26.54
2018-09-29T13:27:09.666Z,26.38
2018-09-29T13:29:37.524Z,26.31
2018-09-29T13:32:05.315Z,26.23
2018-09-29T13:34:33.113Z,26.49
2018-09-29T13:37:00.937Z,26.44
2018-09-29T13:39:28.686Z,26.60
2018-09-29T13:41:56.459Z,26.50
2018-09-29T13:44:24.207Z,26.20
2018-09-29T13:46:51.977Z,26.00
2018-09-29T13:49:19.767Z,25.95
2018-09-29T13:51:47.639Z,26.00
2018-09-29T13:54:15.567Z,25.88
2018-09-29T13:56:43.331Z,26.13
2018-09-29T13:59:11.132Z,25.63
2018-09-29T14:01:38.952Z,25.66
2018-09-29T14:04:06.797Z,25.83
2018-09-29T14:06:34.584Z,26.02
2018-09-29T14:09:02.448Z,26.36
2018-09-29T14:11:30.181Z,26.63
2018-09-29T14:13:58.002Z,25.29
2018-09-29T14:16:25.768Z,24.80
2018-09-29T14:18:53.546Z,24.70
2018-09-29T14:21:21.359Z,25.05
2018-09-29T14:23:49.201Z,25.54
2018-09-29T14:26:16.954Z,25.97
2018-09-29T14:28:44.755Z,26.22
2018-09-29T14:31:12.494Z,26.22
2018-09-29T14:33:40.308Z,26.51
2018-09-29T14:36:08.158Z,26.09
2018-09-29T14:38:36.151Z,25.85
2018-09-29T14:41:03.908Z,26.35
2018-09-29T14:43:31.732Z,26.46
2018-09-29T14:45:59.556Z,26.55
2018-09-29T14:48:27.336Z,26.20
2018-09-29T14:50:55.055Z,25.36
2018-09-29T14:53:22.837Z,25.19
2018-09-29T14:55:50.588Z,25.45
2018-09-29T14:58:18.375Z,25.36
2018-09-29T15:00:46.164Z,25.43
2018-09-29T15:03:13.896Z,25.33
2018-09-29T15:05:41.648Z,24.98
2018-09-29T15:08:09.446Z,24.83
2018-09-29T15:10:37.152Z,24.45
2018-09-29T15:13:05.292Z,24.66
2018-09-29T15:15:33.088Z,24.72
2018-09-29T15:18:00.835Z,24.82
2018-09-29T15:20:28.686Z,25.03
2018-09-29T15:22:56.467Z,25.14
2018-09-29T15:25:24.399Z,25.10
2018-09-29T15:27:52.221Z,25.08
2018-09-29T15:30:20.058Z,24.93
2018-09-29T15:32:47.829Z,24.71
2018-09-29T15:35:15.576Z,24.14
2018-09-29T15:37:43.338Z,23.95
2018-09-29T15:40:11.192Z,23.28
2018-09-29T15:42:39.090Z,23.01
2018-09-29T15:45:07.899Z,22.83
2018-09-29T15:47:35.658Z,22.52
2018-09-29T15:50:03.568Z,22.43
2018-09-29T15:52:31.287Z,22.37
2018-09-29T15:54:59.110Z,22.31
2018-09-29T15:57:26.972Z,22.24
2018-09-29T15:59:54.702Z,22.28
2018-09-29T16:02:22.591Z,22.24
2018-09-29T16:04:50.430Z,22.19
2018-09-29T16:07:18.224Z,22.10
2018-09-29T16:09:46.032Z,21.99
2018-09-29T16:12:14.727Z,22.03
2018-09-29T16:17:09.584Z,21.95
2018-09-29T16:19:37.408Z,21.80
2018-09-29T16:22:05.129Z,21.74
2018-09-29T16:24:32.903Z,21.69
2018-09-29T16:27:00.901Z,21.57
2018-09-29T16:29:28.732Z,21.46
2018-09-29T16:31:56.545Z,21.33
2018-09-29T16:34:24.339Z,21.24
2018-09-29T16:36:52.062Z,21.09
2018-09-29T16:39:19.909Z,20.89
2018-09-29T16:41:47.755Z,20.73
2018-09-29T16:44:15.492Z,20.60
2018-09-29T16:46:43.307Z,20.59
2018-09-29T16:49:11.090Z,20.47
2018-09-29T16:51:38.844Z,20.36
2018-09-29T16:54:06.596Z,20.36
2018-09-29T16:56:34.723Z,20.23
2018-09-29T16:59:02.619Z,19.92
2018-09-29T17:01:30.450Z,19.73
2018-09-29T17:03:58.391Z,19.70
2018-09-29T17:06:26.189Z,19.62
2018-09-29T17:08:54.088Z,19.47
2018-09-29T17:11:21.843Z,19.27
2018-09-29T17:13:49.623Z,19.12
2018-09-29T17:16:17.461Z,19.13
2018-09-29T17:18:45.335Z,19.10
2018-09-29T17:21:13.109Z,19.03
2018-09-29T17:23:40.976Z,18.91
2018-09-29T17:26:08.804Z,18.89
2018-09-29T17:28:36.871Z,18.66
2018-09-29T17:31:04.668Z,18.89
2018-09-29T17:33:32.812Z,19.27
2018-09-29T17:36:00.874Z,19.20
2018-09-29T17:38:29.058Z,19.23
2018-09-29T17:40:56.863Z,19.43
2018-09-29T17:43:24.614Z,19.30
2018-09-29T17:45:52.380Z,19.28
2018-09-29T17:48:20.206Z,19.21
2018-09-29T17:50:48.017Z,19.19
2018-09-29T17:53:15.781Z,19.09
2018-09-29T17:55:43.595Z,19.07
2018-09-29T17:58:11.328Z,19.17
2018-09-29T18:00:39.121Z,19.13
2018-09-29T18:03:07.014Z,18.78
2018-09-29T18:05:35.233Z,18.94
2018-09-29T18:08:03.479Z,18.77
2018-09-29T18:10:32.061Z,18.59
2018-09-29T18:12:59.851Z,18.17
2018-09-29T18:15:27.656Z,18.01
2018-09-29T18:17:55.656Z,17.98
2018-09-29T18:20:23.440Z,18.07
2018-09-29T18:22:51.580Z,17.59
2018-09-29T18:25:19.893Z,17.54
2018-09-29T18:27:47.723Z,17.35
2018-09-29T18:30:15.752Z,17.48
2018-09-29T18:32:43.526Z,17.21
2018-09-29T18:35:11.276Z,17.23
2018-09-29T18:37:39.153Z,17.05
2018-09-29T18:40:07.269Z,16.98
2018-09-29T18:42:35.044Z,17.01
2018-09-29T18:45:02.874Z,16.88
2018-09-29T18:47:31.472Z,16.69
2018-09-29T18:49:59.709Z,16.36
2018-09-29T18:52:28.283Z,16.23
2018-09-29T18:54:56.163Z,16.23
2018-09-29T18:57:24.372Z,16.09
2018-09-29T18:59:52.698Z,16.01
2018-09-29T19:02:20.520Z,15.96
2018-09-29T19:04:48.319Z,15.74
2018-09-29T19:07:16.120Z,15.92
2018-09-29T19:09:44.064Z,15.95
2018-09-29T19:12:11.858Z,15.59
2018-09-29T19:14:39.776Z,15.92
2018-09-29T19:17:07.696Z,15.49
2018-09-29T19:19:35.655Z,15.49
2018-09-29T19:22:03.550Z,15.65
2018-09-29T19:24:31.374Z,15.53
2018-09-29T19:26:59.196Z,15.26
2018-09-29T19:29:27.013Z,15.36
2018-09-29T19:31:54.848Z,15.14
2018-09-29T19:34:22.677Z,15.27
2018-09-29T19:36:50.509Z,15.22
2018-09-29T19:39:18.298Z,15.09
2018-09-29T19:41:46.138Z,15.32
2018-09-29T19:44:13.900Z,15.21
2018-09-29T19:46:41.879Z,15.08
2018-09-29T19:49:09.739Z,14.88
2018-09-29T19:51:37.530Z,14.96
2018-09-29T19:54:05.401Z,14.94
2018-09-29T19:56:33.196Z,14.64
2018-09-29T19:59:00.947Z,14.78
2018-09-29T20:01:28.707Z,14.60
2018-09-29T20:03:56.459Z,14.60
2018-09-29T20:06:24.216Z,14.71
2018-09-29T20:08:52.052Z,14.53
2018-09-29T20:11:19.859Z,14.48
2018-09-29T20:13:47.632Z,14.35
2018-09-29T20:16:15.402Z,14.43
2018-09-29T20:18:43.194Z,14.22
2018-09-29T20:21:10.934Z,14.23
2018-09-29T20:23:38.744Z,14.23
2018-09-29T20:26:06.532Z,14.06
2018-09-29T20:28:34.371Z,14.17
2018-09-29T20:31:02.189Z,14.31
2018-09-29T20:33:30.053Z,14.03
2018-09-29T20:35:57.792Z,14.01
2018-09-29T20:39:31.109Z,14.00
2018-09-29T20:41:58.976Z,13.95
2018-09-29T20:44:26.747Z,13.83
2018-09-29T20:46:54.555Z,13.78
2018-09-29T20:49:22.353Z,14.04
2018-09-29T20:51:50.058Z,13.89
2018-09-29T20:54:17.841Z,13.76
2018-09-29T20:56:45.575Z,13.91
2018-09-29T20:59:13.372Z,14.06
2018-09-29T21:01:41.111Z,14.07
2018-09-29T21:04:08.864Z,14.38
2018-09-29T21:06:36.619Z,14.65
2018-09-29T21:09:06.655Z,14.37
2018-09-29T21:11:34.432Z,14.26
2018-09-29T21:14:02.226Z,14.06
2018-09-29T21:16:30.039Z,14.17
2018-09-29T21:18:57.758Z,14.36
2018-09-29T21:21:25.491Z,14.20
2018-09-29T21:23:53.344Z,14.65
2018-09-29T21:26:21.067Z,14.45
2018-09-29T21:28:48.786Z,14.05
2018-09-29T21:31:16.575Z,13.87
2018-09-29T21:33:44.544Z,14.33
2018-09-29T21:36:12.296Z,14.46
2018-09-29T21:38:40.122Z,14.25
2018-09-29T21:41:07.973Z,14.71
2018-09-29T21:43:35.740Z,13.87
2018-09-29T21:46:03.576Z,14.10
2018-09-29T21:48:31.413Z,14.42
2018-09-29T21:51:00.978Z,14.23
2018-09-29T21:53:28.943Z,14.19
2018-09-29T21:55:56.724Z,14.25
2018-09-29T21:58:24.497Z,14.38
2018-09-29T22:00:52.275Z,14.62
2018-09-29T22:03:20.011Z,14.45
2018-09-29T22:05:47.835Z,14.07
2018-09-29T22:08:15.642Z,13.90
2018-09-29T22:10:43.871Z,14.11
2018-09-29T22:13:11.567Z,13.87
2018-09-29T22:15:39.344Z,13.92
2018-09-29T22:18:07.183Z,14.07
2018-09-29T22:20:34.970Z,13.84
2018-09-29T22:23:02.712Z,14.13
2018-09-29T22:25:30.534Z,14.22
2018-09-29T22:27:58.320Z,14.24
2018-09-29T22:30:26.112Z,13.67
2018-09-29T22:32:53.935Z,14.16
2018-09-29T22:35:21.808Z,14.24
2018-09-29T22:37:49.604Z,14.11
2018-09-29T22:40:17.386Z,14.30
2018-09-29T22:42:45.138Z,14.18
2018-09-29T22:45:12.988Z,14.15
2018-09-29T22:47:40.771Z,14.30
2018-09-29T22:50:08.672Z,14.29
2018-09-29T22:52:36.379Z,14.01
2018-09-29T22:55:04.244Z,14.30
2018-09-29T22:57:32.038Z,14.39
2018-09-29T22:59:59.877Z,14.36
2018-09-29T23:02:27.619Z,14.22
2018-09-29T23:04:55.664Z,14.56
2018-09-29T23:07:23.448Z,14.31
2018-09-29T23:09:51.157Z,14.35
2018-09-29T23:12:18.898Z,14.23
2018-09-29T23:14:46.664Z,14.00
2018-09-29T23:17:14.413Z,13.97
2018-09-29T23:19:42.360Z,14.30
2018-09-29T23:22:10.100Z,14.35
2018-09-29T23:24:37.881Z,14.60
2018-09-29T23:27:05.658Z,14.68
2018-09-29T23:29:33.460Z,14.30
2018-09-29T23:32:01.255Z,14.27
2018-09-29T23:34:28.987Z,14.23
2018-09-29T23:36:56.879Z,14.64
2018-09-29T23:39:24.612Z,14.62
2018-09-29T23:41:52.407Z,14.31
2018-09-29T23:44:20.201Z,14.44
2018-09-29T23:46:47.982Z,14.36
2018-09-29T23:49:15.746Z,14.29
2018-09-29T23:51:43.544Z,14.24
2018-09-29T23:54:11.235Z,14.13
2018-09-29T23:56:38.903Z,14.23
2018-09-29T23:59:06.718Z,13.89
